sensor_id;sensor_type;location;lat;lon;timestamp;pressure;altitude;pressure_sealevel;temperature;humidity
30873;BME280;17579;42.690;2.586;2023-04-06T00:00:13;97393.09;;;12.78;29.41
30873;BME280;17579;42.690;2.586;2023-04-06T00:02:40;97396.78;;;12.77;29.43
30873;BME280;17579;42.690;2.586;2023-04-06T00:05:06;97391.09;;;12.72;29.41
30873;BME280;17579;42.690;2.586;2023-04-06T00:07:32;97391.25;;;12.71;29.45
30873;BME280;17579;42.690;2.586;2023-04-06T00:09:58;97388.06;;;12.67;29.69
30873;BME280;17579;42.690;2.586;2023-04-06T00:12:27;97386.56;;;12.64;29.14
30873;BME280;17579;42.690;2.586;2023-04-06T00:14:56;97391.88;;;12.64;29.40
30873;BME280;17579;42.690;2.586;2023-04-06T00:17:50;97384.81;;;12.55;29.29
30873;BME280;17579;42.690;2.586;2023-04-06T00:20:18;97392.84;;;12.63;29.54
30873;BME280;17579;42.690;2.586;2023-04-06T00:22:47;97388.16;;;12.57;29.45
30873;BME280;17579;42.690;2.586;2023-04-06T00:25:16;97385.34;;;12.59;29.67
30873;BME280;17579;42.690;2.586;2023-04-06T00:27:42;97384.50;;;12.58;29.76
30873;BME280;17579;42.690;2.586;2023-04-06T00:30:13;97383.53;;;12.59;29.86
30873;BME280;17579;42.690;2.586;2023-04-06T00:32:41;97386.19;;;12.59;29.81
30873;BME280;17579;42.690;2.586;2023-04-06T00:37:48;97376.03;;;12.55;30.00
30873;BME280;17579;42.690;2.586;2023-04-06T00:40:23;97379.81;;;12.52;30.06
30873;BME280;17579;42.690;2.586;2023-04-06T00:42:56;97366.56;;;12.52;29.95
30873;BME280;17579;42.690;2.586;2023-04-06T00:45:24;97365.91;;;12.50;30.23
30873;BME280;17579;42.690;2.586;2023-04-06T00:47:50;97363.25;;;12.50;30.13
30873;BME280;17579;42.690;2.586;2023-04-06T00:50:17;97366.88;;;12.49;30.35
30873;BME280;17579;42.690;2.586;2023-04-06T00:52:42;97358.91;;;12.49;30.22
30873;BME280;17579;42.690;2.586;2023-04-06T00:55:08;97362.94;;;12.53;30.35
30873;BME280;17579;42.690;2.586;2023-04-06T00:57:38;97357.47;;;12.55;30.53
30873;BME280;17579;42.690;2.586;2023-04-06T01:00:04;97352.97;;;12.55;30.48
30873;BME280;17579;42.690;2.586;2023-04-06T01:02:33;97350.47;;;12.54;30.52
30873;BME280;17579;42.690;2.586;2023-04-06T01:05:01;97348.00;;;12.52;30.50
30873;BME280;17579;42.690;2.586;2023-04-06T01:07:36;97337.16;;;12.45;30.38
30873;BME280;17579;42.690;2.586;2023-04-06T01:10:02;97333.16;;;12.41;30.68
30873;BME280;17579;42.690;2.586;2023-04-06T01:12:28;97330.81;;;12.38;30.71
30873;BME280;17579;42.690;2.586;2023-04-06T01:14:57;97329.31;;;12.36;30.96
30873;BME280;17579;42.690;2.586;2023-04-06T01:17:34;97324.59;;;12.29;30.72
30873;BME280;17579;42.690;2.586;2023-04-06T01:20:03;97323.94;;;12.27;31.11
30873;BME280;17579;42.690;2.586;2023-04-06T01:22:32;97320.97;;;12.30;31.17
30873;BME280;17579;42.690;2.586;2023-04-06T01:24:58;97309.91;;;12.35;31.12
30873;BME280;17579;42.690;2.586;2023-04-06T01:27:27;97323.38;;;12.42;31.00
30873;BME280;17579;42.690;2.586;2023-04-06T01:29:56;97313.16;;;12.47;31.34
30873;BME280;17579;42.690;2.586;2023-04-06T01:32:22;97314.31;;;12.53;31.25
30873;BME280;17579;42.690;2.586;2023-04-06T01:34:54;97321.69;;;12.59;31.32
30873;BME280;17579;42.690;2.586;2023-04-06T01:37:23;97323.47;;;12.58;30.93
30873;BME280;17579;42.690;2.586;2023-04-06T01:39:51;97320.47;;;12.53;30.94
30873;BME280;17579;42.690;2.586;2023-04-06T01:42:27;97323.59;;;12.48;31.04
30873;BME280;17579;42.690;2.586;2023-04-06T01:44:53;97324.59;;;12.47;31.32
30873;BME280;17579;42.690;2.586;2023-04-06T01:47:19;97313.28;;;12.45;31.18
30873;BME280;17579;42.690;2.586;2023-04-06T01:49:47;97312.63;;;12.43;31.28
30873;BME280;17579;42.690;2.586;2023-04-06T01:52:13;97313.97;;;12.47;31.16
30873;BME280;17579;42.690;2.586;2023-04-06T01:54:41;97310.34;;;12.48;31.21
30873;BME280;17579;42.690;2.586;2023-04-06T01:57:07;97311.31;;;12.47;30.94
30873;BME280;17579;42.690;2.586;2023-04-06T01:59:35;97307.47;;;12.42;31.06
30873;BME280;17579;42.690;2.586;2023-04-06T02:02:01;97303.28;;;12.39;31.33
30873;BME280;17579;42.690;2.586;2023-04-06T02:04:49;97306.81;;;12.40;30.86
30873;BME280;17579;42.690;2.586;2023-04-06T02:07:18;97310.38;;;12.30;31.17
30873;BME280;17579;42.690;2.586;2023-04-06T02:09:47;97298.63;;;12.33;31.47
30873;BME280;17579;42.690;2.586;2023-04-06T02:12:12;97303.94;;;12.33;31.41
30873;BME280;17579;42.690;2.586;2023-04-06T02:14:38;97298.50;;;12.17;31.51
30873;BME280;17579;42.690;2.586;2023-04-06T02:17:04;97303.38;;;12.03;31.99
30873;BME280;17579;42.690;2.586;2023-04-06T02:19:35;97302.38;;;12.04;32.01
30873;BME280;17579;42.690;2.586;2023-04-06T02:22:04;97306.56;;;12.07;31.73
30873;BME280;17579;42.690;2.586;2023-04-06T02:24:35;97302.84;;;12.00;31.84
30873;BME280;17579;42.690;2.586;2023-04-06T02:27:01;97296.91;;;11.88;32.38
30873;BME280;17579;42.690;2.586;2023-04-06T02:29:27;97303.28;;;11.95;32.70
30873;BME280;17579;42.690;2.586;2023-04-06T02:31:56;97300.09;;;12.09;32.23
30873;BME280;17579;42.690;2.586;2023-04-06T02:34:24;97302.34;;;12.22;32.30
30873;BME280;17579;42.690;2.586;2023-04-06T02:36:50;97300.75;;;12.29;32.02
30873;BME280;17579;42.690;2.586;2023-04-06T02:39:18;97298.63;;;12.33;31.77
30873;BME280;17579;42.690;2.586;2023-04-06T02:41:44;97296.63;;;12.35;32.02
30873;BME280;17579;42.690;2.586;2023-04-06T02:44:13;97296.19;;;12.40;31.73
30873;BME280;17579;42.690;2.586;2023-04-06T02:46:38;97298.53;;;12.43;31.71
30873;BME280;17579;42.690;2.586;2023-04-06T02:49:07;97299.50;;;12.42;31.65
30873;BME280;17579;42.690;2.586;2023-04-06T02:51:38;97301.69;;;12.46;31.79
30873;BME280;17579;42.690;2.586;2023-04-06T02:54:04;97296.22;;;12.48;31.69
30873;BME280;17579;42.690;2.586;2023-04-06T02:56:33;97305.69;;;12.51;31.38
30873;BME280;17579;42.690;2.586;2023-04-06T02:59:02;97308.19;;;12.52;31.39
30873;BME280;17579;42.690;2.586;2023-04-06T03:01:40;97311.53;;;12.54;31.31
30873;BME280;17579;42.690;2.586;2023-04-06T03:04:16;97307.06;;;12.55;31.02
30873;BME280;17579;42.690;2.586;2023-04-06T03:06:42;97314.38;;;12.61;31.23
30873;BME280;17579;42.690;2.586;2023-04-06T03:09:16;97306.25;;;12.62;31.02
30873;BME280;17579;42.690;2.586;2023-04-06T03:11:42;97312.25;;;12.64;30.85
30873;BME280;17579;42.690;2.586;2023-04-06T03:14:11;97303.59;;;12.62;30.95
30873;BME280;17579;42.690;2.586;2023-04-06T03:16:41;97312.88;;;12.58;30.89
30873;BME280;17579;42.690;2.586;2023-04-06T03:19:27;97311.00;;;12.51;30.97
30873;BME280;17579;42.690;2.586;2023-04-06T03:21:53;97314.84;;;12.56;31.07
30873;BME280;17579;42.690;2.586;2023-04-06T03:24:22;97310.84;;;12.52;31.04
30873;BME280;17579;42.690;2.586;2023-04-06T03:26:48;97310.19;;;12.50;31.14
30873;BME280;17579;42.690;2.586;2023-04-06T03:29:17;97308.97;;;12.44;31.18
30873;BME280;17579;42.690;2.586;2023-04-06T03:31:43;97311.63;;;12.44;31.05
30873;BME280;17579;42.690;2.586;2023-04-06T03:34:20;97314.44;;;12.43;31.13
30873;BME280;17579;42.690;2.586;2023-04-06T03:36:55;97311.25;;;12.39;30.94
30873;BME280;17579;42.690;2.586;2023-04-06T03:39:21;97313.91;;;12.39;31.17
30873;BME280;17579;42.690;2.586;2023-04-06T03:41:49;97314.22;;;12.36;31.04
30873;BME280;17579;42.690;2.586;2023-04-06T03:44:21;97310.22;;;12.32;30.83
30873;BME280;17579;42.690;2.586;2023-04-06T03:46:47;97311.88;;;12.33;30.99
30873;BME280;17579;42.690;2.586;2023-04-06T03:49:13;97313.19;;;12.29;31.41
30873;BME280;17579;42.690;2.586;2023-04-06T03:51:39;97303.53;;;12.28;31.19
30873;BME280;17579;42.690;2.586;2023-04-06T03:54:09;97308.84;;;12.28;30.88
30873;BME280;17579;42.690;2.586;2023-04-06T03:56:38;97313.19;;;12.29;31.25
30873;BME280;17579;42.690;2.586;2023-04-06T03:59:04;97310.69;;;12.27;31.33
30873;BME280;17579;42.690;2.586;2023-04-06T04:01:42;97311.66;;;12.26;31.13
30873;BME280;17579;42.690;2.586;2023-04-06T04:04:08;97312.28;;;12.20;31.04
30873;BME280;17579;42.690;2.586;2023-04-06T04:06:34;97317.50;;;12.12;31.09
30873;BME280;17579;42.690;2.586;2023-04-06T04:09:03;97316.84;;;12.10;31.46
30873;BME280;17579;42.690;2.586;2023-04-06T04:11:31;97310.50;;;12.03;31.17
30873;BME280;17579;42.690;2.586;2023-04-06T04:14:00;97321.25;;;12.01;31.27
30873;BME280;17579;42.690;2.586;2023-04-06T04:16:28;97324.63;;;11.93;31.49
30873;BME280;17579;42.690;2.586;2023-04-06T04:19:14;97325.84;;;11.81;31.21
30873;BME280;17579;42.690;2.586;2023-04-06T04:21:42;97324.69;;;11.84;31.60
30873;BME280;17579;42.690;2.586;2023-04-06T04:24:11;97325.44;;;11.76;31.30
30873;BME280;17579;42.690;2.586;2023-04-06T04:26:41;97329.94;;;11.75;31.51
30873;BME280;17579;42.690;2.586;2023-04-06T04:29:12;97321.44;;;11.72;31.61
30873;BME280;17579;42.690;2.586;2023-04-06T04:31:38;97325.59;;;11.74;32.04
30873;BME280;17579;42.690;2.586;2023-04-06T04:34:14;97332.41;;;11.77;31.95
30873;BME280;17579;42.690;2.586;2023-04-06T04:36:43;97326.56;;;11.73;31.80
30873;BME280;17579;42.690;2.586;2023-04-06T04:39:12;97330.75;;;11.76;31.89
30873;BME280;17579;42.690;2.586;2023-04-06T04:41:38;97332.56;;;11.75;31.87
30873;BME280;17579;42.690;2.586;2023-04-06T04:44:04;97325.28;;;11.77;31.80
30873;BME280;17579;42.690;2.586;2023-04-06T04:49:33;97320.16;;;11.76;31.53
30873;BME280;17579;42.690;2.586;2023-04-06T04:52:02;97323.25;;;11.71;31.60
30873;BME280;17579;42.690;2.586;2023-04-06T04:54:27;97326.88;;;11.70;31.43
30873;BME280;17579;42.690;2.586;2023-04-06T04:56:55;97327.44;;;11.74;31.41
30873;BME280;17579;42.690;2.586;2023-04-06T04:59:21;97325.59;;;11.74;31.04
30873;BME280;17579;42.690;2.586;2023-04-06T05:01:47;97326.28;;;11.76;31.26
30873;BME280;17579;42.690;2.586;2023-04-06T05:04:13;97334.22;;;11.76;30.97
30873;BME280;17579;42.690;2.586;2023-04-06T05:06:39;97321.28;;;11.73;30.87
30873;BME280;17579;42.690;2.586;2023-04-06T05:09:07;97332.72;;;11.74;30.83
30873;BME280;17579;42.690;2.586;2023-04-06T05:11:38;97324.22;;;11.70;30.48
30873;BME280;17579;42.690;2.586;2023-04-06T05:14:15;97325.34;;;11.68;30.79
30873;BME280;17579;42.690;2.586;2023-04-06T05:16:42;97323.25;;;11.71;30.55
30873;BME280;17579;42.690;2.586;2023-04-06T05:19:08;97332.34;;;11.69;30.40
30873;BME280;17579;42.690;2.586;2023-04-06T05:21:34;97328.88;;;11.68;30.57
30873;BME280;17579;42.690;2.586;2023-04-06T05:24:00;97333.75;;;11.63;30.63
30873;BME280;17579;42.690;2.586;2023-04-06T05:26:27;97333.41;;;11.58;30.61
30873;BME280;17579;42.690;2.586;2023-04-06T05:28:53;97328.53;;;11.53;31.05
30873;BME280;17579;42.690;2.586;2023-04-06T05:31:22;97330.66;;;11.50;31.08
30873;BME280;17579;42.690;2.586;2023-04-06T05:33:51;97333.44;;;11.48;31.05
30873;BME280;17579;42.690;2.586;2023-04-06T05:36:23;97341.69;;;11.45;31.24
30873;BME280;17579;42.690;2.586;2023-04-06T05:38:52;97349.09;;;11.41;31.33
30873;BME280;17579;42.690;2.586;2023-04-06T05:41:18;97352.72;;;11.40;31.13
30873;BME280;17579;42.690;2.586;2023-04-06T05:43:44;97353.72;;;11.39;31.43
30873;BME280;17579;42.690;2.586;2023-04-06T05:46:32;97358.09;;;11.31;31.00
30873;BME280;17579;42.690;2.586;2023-04-06T05:48:58;97357.19;;;11.40;31.33
30873;BME280;17579;42.690;2.586;2023-04-06T05:51:44;97353.88;;;11.56;31.39
30873;BME280;17579;42.690;2.586;2023-04-06T05:54:21;97360.91;;;11.93;31.20
30873;BME280;17579;42.690;2.586;2023-04-06T05:56:49;97360.53;;;12.24;30.94
30873;BME280;17579;42.690;2.586;2023-04-06T05:59:21;97359.31;;;12.36;30.49
30873;BME280;17579;42.690;2.586;2023-04-06T06:01:49;97357.19;;;12.40;30.25
30873;BME280;17579;42.690;2.586;2023-04-06T06:04:18;97363.00;;;12.61;30.03
30873;BME280;17579;42.690;2.586;2023-04-06T06:06:43;97364.53;;;12.98;29.86
30873;BME280;17579;42.690;2.586;2023-04-06T06:12:02;97362.31;;;13.46;29.32
30873;BME280;17579;42.690;2.586;2023-04-06T06:14:28;97368.03;;;13.84;28.96
30873;BME280;17579;42.690;2.586;2023-04-06T06:16:54;97367.28;;;14.17;28.48
30873;BME280;17579;42.690;2.586;2023-04-06T06:19:23;97364.94;;;14.30;28.64
30873;BME280;17579;42.690;2.586;2023-04-06T06:21:53;97373.25;;;14.19;28.05
30873;BME280;17579;42.690;2.586;2023-04-06T06:24:19;97372.75;;;14.07;28.11
30873;BME280;17579;42.690;2.586;2023-04-06T06:26:48;97374.75;;;14.05;28.25
30873;BME280;17579;42.690;2.586;2023-04-06T06:29:16;97373.75;;;14.39;28.16
30873;BME280;17579;42.690;2.586;2023-04-06T06:31:42;97378.06;;;14.98;27.68
30873;BME280;17579;42.690;2.586;2023-04-06T06:34:08;97371.84;;;15.62;27.40
30873;BME280;17579;42.690;2.586;2023-04-06T06:36:38;97369.34;;;16.23;26.65
30873;BME280;17579;42.690;2.586;2023-04-06T06:39:04;97364.78;;;16.70;26.37
30873;BME280;17579;42.690;2.586;2023-04-06T06:44:21;97368.63;;;17.50;25.84
30873;BME280;17579;42.690;2.586;2023-04-06T06:46:56;97371.31;;;17.87;25.14
30873;BME280;17579;42.690;2.586;2023-04-06T06:49:22;97372.38;;;17.71;24.52
30873;BME280;17579;42.690;2.586;2023-04-06T06:51:48;97377.28;;;17.52;24.44
30873;BME280;17579;42.690;2.586;2023-04-06T06:54:16;97368.56;;;17.28;24.92
30873;BME280;17579;42.690;2.586;2023-04-06T06:56:45;97377.84;;;17.03;24.64
30873;BME280;17579;42.690;2.586;2023-04-06T06:59:11;97372.16;;;16.44;25.09
30873;BME280;17579;42.690;2.586;2023-04-06T07:01:37;97380.53;;;15.95;25.77
30873;BME280;17579;42.690;2.586;2023-04-06T07:04:08;97382.19;;;15.56;26.21
30873;BME280;17579;42.690;2.586;2023-04-06T07:06:35;97376.78;;;15.41;26.58
30873;BME280;17579;42.690;2.586;2023-04-06T07:09:04;97382.13;;;15.33;26.46
30873;BME280;17579;42.690;2.586;2023-04-06T07:11:33;97382.56;;;15.53;26.46
30873;BME280;17579;42.690;2.586;2023-04-06T07:14:02;97381.63;;;15.69;26.07
30873;BME280;17579;42.690;2.586;2023-04-06T07:16:37;97379.28;;;16.06;26.23
30873;BME280;17579;42.690;2.586;2023-04-06T07:19:03;97379.81;;;16.24;25.74
30873;BME280;17579;42.690;2.586;2023-04-06T07:21:29;97378.81;;;16.02;25.49
30873;BME280;17579;42.690;2.586;2023-04-06T07:23:57;97388.88;;;15.92;26.17
30873;BME280;17579;42.690;2.586;2023-04-06T07:26:23;97389.66;;;16.01;25.92
30873;BME280;17579;42.690;2.586;2023-04-06T07:28:49;97396.66;;;16.02;26.03
30873;BME280;17579;42.690;2.586;2023-04-06T07:31:15;97392.25;;;16.09;26.04
30873;BME280;17579;42.690;2.586;2023-04-06T07:33:41;97404.00;;;16.00;25.88
30873;BME280;17579;42.690;2.586;2023-04-06T07:36:07;97401.38;;;15.91;25.91
30873;BME280;17579;42.690;2.586;2023-04-06T07:38:44;97409.72;;;15.88;26.32
30873;BME280;17579;42.690;2.586;2023-04-06T07:41:11;97402.91;;;15.86;26.51
30873;BME280;17579;42.690;2.586;2023-04-06T07:43:37;97402.91;;;15.86;26.22
30873;BME280;17579;42.690;2.586;2023-04-06T07:46:03;97408.25;;;15.86;26.48
30873;BME280;17579;42.690;2.586;2023-04-06T07:48:29;97408.78;;;15.81;26.67
30873;BME280;17579;42.690;2.586;2023-04-06T07:53:48;97409.16;;;16.01;26.63
30873;BME280;17579;42.690;2.586;2023-04-06T07:56:15;97410.13;;;16.08;26.68
30873;BME280;17579;42.690;2.586;2023-04-06T07:58:41;97410.13;;;16.08;26.48
30873;BME280;17579;42.690;2.586;2023-04-06T08:01:09;97413.28;;;16.12;26.51
30873;BME280;17579;42.690;2.586;2023-04-06T08:03:58;97414.09;;;16.36;26.25
30873;BME280;17579;42.690;2.586;2023-04-06T08:06:26;97414.69;;;16.46;26.17
30873;BME280;17579;42.690;2.586;2023-04-06T08:08:52;97416.19;;;16.49;25.46
30873;BME280;17579;42.690;2.586;2023-04-06T08:11:18;97412.81;;;16.32;25.96
30873;BME280;17579;42.690;2.586;2023-04-06T08:13:53;97413.03;;;16.22;26.14
30873;BME280;17579;42.690;2.586;2023-04-06T08:16:24;97418.09;;;16.17;26.59
30873;BME280;17579;42.690;2.586;2023-04-06T08:18:53;97418.84;;;16.25;26.57
30873;BME280;17579;42.690;2.586;2023-04-06T08:21:22;97426.16;;;16.32;26.82
30873;BME280;17579;42.690;2.586;2023-04-06T08:23:48;97432.78;;;16.36;26.09
30873;BME280;17579;42.690;2.586;2023-04-06T08:26:19;97435.69;;;16.26;26.03
30873;BME280;17579;42.690;2.586;2023-04-06T08:28:47;97436.19;;;16.30;26.15
30873;BME280;17579;42.690;2.586;2023-04-06T08:31:16;97428.94;;;16.38;25.74
30873;BME280;17579;42.690;2.586;2023-04-06T08:33:44;97435.78;;;16.41;25.96
30873;BME280;17579;42.690;2.586;2023-04-06T08:36:23;97439.94;;;16.43;26.17
30873;BME280;17579;42.690;2.586;2023-04-06T08:38:49;97443.59;;;16.42;25.44
30873;BME280;17579;42.690;2.586;2023-04-06T08:41:15;97442.28;;;16.38;25.49
30873;BME280;17579;42.690;2.586;2023-04-06T08:43:43;97447.63;;;16.38;25.31
30873;BME280;17579;42.690;2.586;2023-04-06T08:46:33;97438.81;;;16.38;24.86
30873;BME280;17579;42.690;2.586;2023-04-06T08:49:03;97449.81;;;16.35;24.99
30873;BME280;17579;42.690;2.586;2023-04-06T08:51:34;97449.63;;;16.36;25.28
30873;BME280;17579;42.690;2.586;2023-04-06T08:54:02;97449.13;;;16.41;25.25
30873;BME280;17579;42.690;2.586;2023-04-06T08:56:28;97453.44;;;16.42;25.55
30873;BME280;17579;42.690;2.586;2023-04-06T08:58:58;97446.91;;;16.44;25.43
30873;BME280;17579;42.690;2.586;2023-04-06T09:01:27;97451.91;;;16.48;25.42
30873;BME280;17579;42.690;2.586;2023-04-06T09:03:57;97449.34;;;16.54;25.65
30873;BME280;17579;42.690;2.586;2023-04-06T09:06:25;97444.97;;;16.61;25.61
30873;BME280;17579;42.690;2.586;2023-04-06T09:08:52;97448.56;;;16.69;25.58
30873;BME280;17579;42.690;2.586;2023-04-06T09:11:18;97443.34;;;16.75;24.87
30873;BME280;17579;42.690;2.586;2023-04-06T09:13:54;97440.97;;;16.80;25.44
30873;BME280;17579;42.690;2.586;2023-04-06T09:16:24;97432.66;;;16.99;24.94
30873;BME280;17579;42.690;2.586;2023-04-06T09:18:51;97443.91;;;17.09;25.04
30873;BME280;17579;42.690;2.586;2023-04-06T09:21:18;97436.56;;;17.26;24.73
30873;BME280;17579;42.690;2.586;2023-04-06T09:24:03;97439.16;;;17.49;24.82
30873;BME280;17579;42.690;2.586;2023-04-06T09:29:26;97429.47;;;17.63;24.48
30873;BME280;17579;42.690;2.586;2023-04-06T09:32:02;97425.44;;;17.67;24.58
30873;BME280;17579;42.690;2.586;2023-04-06T09:34:30;97422.75;;;17.67;24.01
30873;BME280;17579;42.690;2.586;2023-04-06T09:36:56;97420.63;;;17.77;24.54
30873;BME280;17579;42.690;2.586;2023-04-06T09:39:27;97426.03;;;17.99;23.60
30873;BME280;17579;42.690;2.586;2023-04-06T09:41:54;97419.44;;;18.16;23.46
30873;BME280;17579;42.690;2.586;2023-04-06T09:44:23;97419.56;;;18.30;23.87
30873;BME280;17579;42.690;2.586;2023-04-06T09:46:53;97420.22;;;18.32;23.90
30873;BME280;17579;42.690;2.586;2023-04-06T09:49:20;97420.22;;;18.32;23.46
30873;BME280;17579;42.690;2.586;2023-04-06T09:51:53;97423.53;;;18.34;23.40
30873;BME280;17579;42.690;2.586;2023-04-06T09:54:21;97414.19;;;18.45;23.26
30873;BME280;17579;42.690;2.586;2023-04-06T10:01:58;97408.09;;;18.79;23.57
30873;BME280;17579;42.690;2.586;2023-04-06T10:07:17;97408.66;;;19.25;22.98
30873;BME280;17579;42.690;2.586;2023-04-06T10:09:46;97410.81;;;19.43;23.01
30873;BME280;17579;42.690;2.586;2023-04-06T10:12:12;97398.28;;;19.56;22.24
30873;BME280;17579;42.690;2.586;2023-04-06T10:14:47;97393.22;;;19.68;22.17
30873;BME280;17579;42.690;2.586;2023-04-06T10:17:19;97380.28;;;19.79;21.96
30873;BME280;17579;42.690;2.586;2023-04-06T10:22:24;97384.66;;;19.93;21.87
30873;BME280;17579;42.690;2.586;2023-04-06T10:24:58;97385.28;;;19.95;20.88
30873;BME280;17579;42.690;2.586;2023-04-06T10:27:30;97392.75;;;20.00;21.85
30873;BME280;17579;42.690;2.586;2023-04-06T10:30:06;97378.13;;;20.29;20.59
30873;BME280;17579;42.690;2.586;2023-04-06T10:32:34;97380.00;;;20.35;20.51
30873;BME280;17579;42.690;2.586;2023-04-06T10:35:08;97382.28;;;20.32;20.86
30873;BME280;17579;42.690;2.586;2023-04-06T10:40:21;97376.72;;;20.53;20.80
30873;BME280;17579;42.690;2.586;2023-04-06T10:42:54;97371.34;;;20.53;20.45
30873;BME280;17579;42.690;2.586;2023-04-06T10:45:25;97375.69;;;20.54;20.10
30873;BME280;17579;42.690;2.586;2023-04-06T10:47:54;97370.72;;;20.58;19.85
30873;BME280;17579;42.690;2.586;2023-04-06T10:50:22;97367.41;;;20.63;19.81
30873;BME280;17579;42.690;2.586;2023-04-06T10:53:03;97359.56;;;20.61;20.36
30873;BME280;17579;42.690;2.586;2023-04-06T10:55:30;97367.00;;;20.59;19.57
30873;BME280;17579;42.690;2.586;2023-04-06T10:57:56;97357.50;;;20.43;19.76
30873;BME280;17579;42.690;2.586;2023-04-06T11:00:35;97361.41;;;20.34;19.83
30873;BME280;17579;42.690;2.586;2023-04-06T11:03:01;97362.41;;;20.19;19.58
30873;BME280;17579;42.690;2.586;2023-04-06T11:05:27;97356.41;;;20.11;19.57
30873;BME280;17579;42.690;2.586;2023-04-06T11:08:04;97365.91;;;20.00;19.25
30873;BME280;17579;42.690;2.586;2023-04-06T11:10:30;97363.19;;;19.93;19.14
30873;BME280;17579;42.690;2.586;2023-04-06T11:13:08;97362.16;;;19.94;19.25
30873;BME280;17579;42.690;2.586;2023-04-06T11:15:40;97360.25;;;19.88;19.83
30873;BME280;17579;42.690;2.586;2023-04-06T11:18:06;97369.38;;;19.87;19.70
30873;BME280;17579;42.690;2.586;2023-04-06T11:20:32;97377.59;;;19.85;19.74
30873;BME280;17579;42.690;2.586;2023-04-06T11:22:58;97368.66;;;19.78;19.80
30873;BME280;17579;42.690;2.586;2023-04-06T11:25:28;97367.81;;;19.64;20.01
30873;BME280;17579;42.690;2.586;2023-04-06T11:27:55;97367.72;;;19.51;19.64
30873;BME280;17579;42.690;2.586;2023-04-06T11:30:32;97362.81;;;19.54;20.30
30873;BME280;17579;42.690;2.586;2023-04-06T11:33:08;97363.03;;;19.60;19.27
30873;BME280;17579;42.690;2.586;2023-04-06T11:35:34;97370.03;;;19.61;19.41
30873;BME280;17579;42.690;2.586;2023-04-06T11:38:03;97369.19;;;19.53;19.04
30873;BME280;17579;42.690;2.586;2023-04-06T11:40:29;97364.03;;;19.52;18.79
30873;BME280;17579;42.690;2.586;2023-04-06T11:43:01;97366.50;;;19.53;18.33
30873;BME280;17579;42.690;2.586;2023-04-06T11:45:41;97359.50;;;19.52;19.01
30873;BME280;17579;42.690;2.586;2023-04-06T11:48:18;97364.25;;;19.57;19.22
30873;BME280;17579;42.690;2.586;2023-04-06T11:50:48;97360.38;;;19.66;19.64
30873;BME280;17579;42.690;2.586;2023-04-06T11:53:17;97356.63;;;19.61;20.18
30873;BME280;17579;42.690;2.586;2023-04-06T11:56:03;97363.22;;;19.58;20.44
30873;BME280;17579;42.690;2.586;2023-04-06T11:58:49;97366.56;;;19.67;20.56
30873;BME280;17579;42.690;2.586;2023-04-06T12:01:18;97361.78;;;19.62;20.67
30873;BME280;17579;42.690;2.586;2023-04-06T12:03:52;97360.16;;;19.68;20.51
30873;BME280;17579;42.690;2.586;2023-04-06T12:06:25;97353.44;;;19.79;20.58
30873;BME280;17579;42.690;2.586;2023-04-06T12:08:51;97358.59;;;19.80;21.01
30873;BME280;17579;42.690;2.586;2023-04-06T12:11:17;97359.41;;;19.81;21.25
30873;BME280;17579;42.690;2.586;2023-04-06T12:13:47;97358.59;;;19.80;21.28
30873;BME280;17579;42.690;2.586;2023-04-06T12:16:13;97363.28;;;19.78;21.28
30873;BME280;17579;42.690;2.586;2023-04-06T12:18:41;97359.78;;;19.78;20.83
30873;BME280;17579;42.690;2.586;2023-04-06T12:21:09;97352.56;;;19.78;21.15
30873;BME280;17579;42.690;2.586;2023-04-06T12:23:38;97355.94;;;19.87;21.40
30873;BME280;17579;42.690;2.586;2023-04-06T12:26:24;97352.44;;;19.93;21.29
30873;BME280;17579;42.690;2.586;2023-04-06T12:29:03;97346.63;;;19.89;21.43
30873;BME280;17579;42.690;2.586;2023-04-06T12:31:35;97350.97;;;19.84;22.16
30873;BME280;17579;42.690;2.586;2023-04-06T12:34:11;97345.38;;;19.85;21.72
30873;BME280;17579;42.690;2.586;2023-04-06T12:36:39;97347.69;;;19.88;22.49
30873;BME280;17579;42.690;2.586;2023-04-06T12:39:07;97346.25;;;19.93;22.14
30873;BME280;17579;42.690;2.586;2023-04-06T12:41:37;97340.47;;;19.96;22.09
30873;BME280;17579;42.690;2.586;2023-04-06T12:44:08;97341.94;;;20.05;22.44
30873;BME280;17579;42.690;2.586;2023-04-06T12:46:34;97328.75;;;20.30;23.00
30873;BME280;17579;42.690;2.586;2023-04-06T12:49:01;97334.75;;;20.66;23.17
30873;BME280;17579;42.690;2.586;2023-04-06T12:51:28;97327.94;;;21.03;22.46
30873;BME280;17579;42.690;2.586;2023-04-06T12:54:03;97330.34;;;21.25;22.75
30873;BME280;17579;42.690;2.586;2023-04-06T12:56:38;97329.84;;;21.55;22.43
30873;BME280;17579;42.690;2.586;2023-04-06T12:59:07;97326.47;;;21.73;21.89
30873;BME280;17579;42.690;2.586;2023-04-06T13:01:33;97330.19;;;21.72;22.44
30873;BME280;17579;42.690;2.586;2023-04-06T13:03:58;97328.97;;;21.68;21.95
30873;BME280;17579;42.690;2.586;2023-04-06T13:06:29;97331.25;;;21.71;22.29
30873;BME280;17579;42.690;2.586;2023-04-06T13:09:10;97336.34;;;21.86;22.19
30873;BME280;17579;42.690;2.586;2023-04-06T13:11:38;97329.28;;;21.85;21.93
30873;BME280;17579;42.690;2.586;2023-04-06T13:14:07;97326.16;;;21.88;22.30
30873;BME280;17579;42.690;2.586;2023-04-06T13:16:36;97324.31;;;21.88;22.04
30873;BME280;17579;42.690;2.586;2023-04-06T13:19:02;97325.81;;;21.77;22.36
30873;BME280;17579;42.690;2.586;2023-04-06T13:21:31;97320.06;;;21.67;22.57
30873;BME280;17579;42.690;2.586;2023-04-06T13:23:57;97317.84;;;21.51;22.79
30873;BME280;17579;42.690;2.586;2023-04-06T13:26:23;97311.28;;;21.33;22.61
30873;BME280;17579;42.690;2.586;2023-04-06T13:28:51;97315.47;;;21.16;22.31
30873;BME280;17579;42.690;2.586;2023-04-06T13:31:23;97314.47;;;21.03;22.71
30873;BME280;17579;42.690;2.586;2023-04-06T13:33:51;97310.72;;;21.04;22.96
30873;BME280;17579;42.690;2.586;2023-04-06T13:36:43;97305.19;;;20.99;22.88
30873;BME280;17579;42.690;2.586;2023-04-06T13:39:12;97308.63;;;21.26;22.32
30873;BME280;17579;42.690;2.586;2023-04-06T13:41:46;97312.47;;;21.44;22.08